sensor_id;sensor_type;location;lat;lon;timestamp;P1;durP1;ratioP1;P2;durP2;ratioP2
53287;SDS011;39172;45.550;12.072;2023-05-16T00:02:26;1.13;;;1.02;;
53287;SDS011;39172;45.550;12.072;2023-05-16T00:08:27;1.65;;;1.10;;
53287;SDS011;39172;45.550;12.072;2023-05-16T00:14:28;1.40;;;1.02;;
53287;SDS011;39172;45.550;12.072;2023-05-16T00:20:29;1.27;;;1.10;;
53287;SDS011;39172;45.550;12.072;2023-05-16T00:26:31;1.45;;;1.10;;
53287;SDS011;39172;45.550;12.072;2023-05-16T00:32:32;1.02;;;0.90;;
53287;SDS011;39172;45.550;12.072;2023-05-16T00:38:34;1.70;;;1.00;;
53287;SDS011;39172;45.550;12.072;2023-05-16T00:44:35;1.35;;;1.00;;
53287;SDS011;39172;45.550;12.072;2023-05-16T00:50:36;1.77;;;0.98;;
53287;SDS011;39172;45.550;12.072;2023-05-16T00:56:37;1.27;;;1.00;;
53287;SDS011;39172;45.550;12.072;2023-05-16T01:02:38;1.60;;;1.10;;
53287;SDS011;39172;45.550;12.072;2023-05-16T01:08:39;1.42;;;1.00;;
53287;SDS011;39172;45.550;12.072;2023-05-16T01:14:50;1.65;;;1.00;;
53287;SDS011;39172;45.550;12.072;2023-05-16T01:20:59;1.25;;;1.10;;
53287;SDS011;39172;45.550;12.072;2023-05-16T01:27:03;1.65;;;1.10;;
53287;SDS011;39172;45.550;12.072;2023-05-16T01:33:04;1.60;;;0.90;;
53287;SDS011;39172;45.550;12.072;2023-05-16T01:39:06;1.08;;;0.80;;
53287;SDS011;39172;45.550;12.072;2023-05-16T01:45:14;1.00;;;0.90;;
53287;SDS011;39172;45.550;12.072;2023-05-16T01:51:18;0.70;;;0.70;;
53287;SDS011;39172;45.550;12.072;2023-05-16T01:57:20;0.77;;;0.77;;
53287;SDS011;39172;45.550;12.072;2023-05-16T02:03:24;0.93;;;0.90;;
53287;SDS011;39172;45.550;12.072;2023-05-16T02:09:25;1.10;;;0.93;;
53287;SDS011;39172;45.550;12.072;2023-05-16T02:15:26;1.42;;;0.90;;
53287;SDS011;39172;45.550;12.072;2023-05-16T02:21:27;0.80;;;0.80;;
53287;SDS011;39172;45.550;12.072;2023-05-16T02:27:28;1.40;;;1.08;;
53287;SDS011;39172;45.550;12.072;2023-05-16T02:33:29;1.60;;;0.95;;
53287;SDS011;39172;45.550;12.072;2023-05-16T02:39:30;1.25;;;0.90;;
53287;SDS011;39172;45.550;12.072;2023-05-16T02:45:32;1.00;;;0.88;;
53287;SDS011;39172;45.550;12.072;2023-05-16T02:51:36;0.93;;;0.80;;
53287;SDS011;39172;45.550;12.072;2023-05-16T02:57:37;1.00;;;0.90;;
53287;SDS011;39172;45.550;12.072;2023-05-16T03:03:38;1.25;;;1.00;;
53287;SDS011;39172;45.550;12.072;2023-05-16T03:09:39;1.05;;;0.95;;
53287;SDS011;39172;45.550;12.072;2023-05-16T03:15:40;2.58;;;0.93;;
53287;SDS011;39172;45.550;12.072;2023-05-16T03:21:46;1.25;;;0.85;;
53287;SDS011;39172;45.550;12.072;2023-05-16T03:27:47;0.90;;;0.70;;
53287;SDS011;39172;45.550;12.072;2023-05-16T03:33:48;1.10;;;0.80;;
53287;SDS011;39172;45.550;12.072;2023-05-16T03:39:49;0.95;;;0.70;;
53287;SDS011;39172;45.550;12.072;2023-05-16T03:45:50;1.00;;;0.90;;
53287;SDS011;39172;45.550;12.072;2023-05-16T03:51:51;1.10;;;1.00;;
53287;SDS011;39172;45.550;12.072;2023-05-16T03:57:52;1.23;;;0.88;;
53287;SDS011;39172;45.550;12.072;2023-05-16T04:03:53;0.90;;;0.80;;
53287;SDS011;39172;45.550;12.072;2023-05-16T04:09:54;1.48;;;0.82;;
53287;SDS011;39172;45.550;12.072;2023-05-16T04:15:58;0.80;;;0.80;;
53287;SDS011;39172;45.550;12.072;2023-05-16T04:21:59;1.00;;;0.90;;
53287;SDS011;39172;45.550;12.072;2023-05-16T04:28:00;0.88;;;0.80;;
53287;SDS011;39172;45.550;12.072;2023-05-16T04:34:01;1.10;;;0.85;;
53287;SDS011;39172;45.550;12.072;2023-05-16T04:40:02;1.15;;;1.05;;
53287;SDS011;39172;45.550;12.072;2023-05-16T04:46:03;1.00;;;0.90;;
53287;SDS011;39172;45.550;12.072;2023-05-16T04:52:05;1.20;;;1.00;;
53287;SDS011;39172;45.550;12.072;2023-05-16T04:58:08;1.27;;;0.95;;
53287;SDS011;39172;45.550;12.072;2023-05-16T05:04:09;1.45;;;0.90;;
53287;SDS011;39172;45.550;12.072;2023-05-16T05:10:10;1.13;;;0.90;;
53287;SDS011;39172;45.550;12.072;2023-05-16T05:16:11;0.95;;;0.80;;
53287;SDS011;39172;45.550;12.072;2023-05-16T05:22:13;1.30;;;0.85;;
53287;SDS011;39172;45.550;12.072;2023-05-16T05:28:14;0.98;;;0.82;;
53287;SDS011;39172;45.550;12.072;2023-05-16T05:34:16;1.05;;;0.90;;
53287;SDS011;39172;45.550;12.072;2023-05-16T05:40:17;1.40;;;1.10;;
53287;SDS011;39172;45.550;12.072;2023-05-16T05:52:51;1.80;;;1.40;;
53287;SDS011;39172;45.550;12.072;2023-05-16T05:58:52;1.30;;;1.20;;
53287;SDS011;39172;45.550;12.072;2023-05-16T06:04:53;1.67;;;1.20;;
53287;SDS011;39172;45.550;12.072;2023-05-16T06:10:54;2.15;;;1.30;;
53287;SDS011;39172;45.550;12.072;2023-05-16T06:16:55;1.15;;;1.02;;
53287;SDS011;39172;45.550;12.072;2023-05-16T06:22:57;1.42;;;1.30;;
53287;SDS011;39172;45.550;12.072;2023-05-16T06:28:58;2.40;;;1.40;;
53287;SDS011;39172;45.550;12.072;2023-05-16T06:34:59;2.70;;;1.40;;
53287;SDS011;39172;45.550;12.072;2023-05-16T06:41:00;1.85;;;1.40;;
53287;SDS011;39172;45.550;12.072;2023-05-16T06:47:01;2.03;;;1.38;;
53287;SDS011;39172;45.550;12.072;2023-05-16T06:53:07;1.95;;;1.60;;
53287;SDS011;39172;45.550;12.072;2023-05-16T06:59:08;2.20;;;1.60;;
53287;SDS011;39172;45.550;12.072;2023-05-16T07:05:09;1.88;;;1.50;;
53287;SDS011;39172;45.550;12.072;2023-05-16T07:11:10;2.22;;;1.40;;
53287;SDS011;39172;45.550;12.072;2023-05-16T07:17:12;2.05;;;1.10;;
53287;SDS011;39172;45.550;12.072;2023-05-16T07:23:13;1.38;;;1.25;;
53287;SDS011;39172;45.550;12.072;2023-05-16T07:29:17;2.03;;;1.25;;
53287;SDS011;39172;45.550;12.072;2023-05-16T07:35:18;1.50;;;1.40;;
53287;SDS011;39172;45.550;12.072;2023-05-16T07:41:25;3.65;;;2.10;;
53287;SDS011;39172;45.550;12.072;2023-05-16T07:47:27;1.80;;;1.60;;
53287;SDS011;39172;45.550;12.072;2023-05-16T07:53:29;2.55;;;1.80;;
53287;SDS011;39172;45.550;12.072;2023-05-16T07:59:30;2.53;;;1.95;;
53287;SDS011;39172;45.550;12.072;2023-05-16T08:05:34;3.05;;;1.88;;
53287;SDS011;39172;45.550;12.072;2023-05-16T08:11:35;2.25;;;1.70;;
53287;SDS011;39172;45.550;12.072;2023-05-16T08:17:56;1.67;;;1.50;;
53287;SDS011;39172;45.550;12.072;2023-05-16T08:23:58;1.83;;;1.30;;
53287;SDS011;39172;45.550;12.072;2023-05-16T08:29:59;1.88;;;1.67;;
53287;SDS011;39172;45.550;12.072;2023-05-16T08:36:00;2.72;;;1.98;;
53287;SDS011;39172;45.550;12.072;2023-05-16T08:42:01;2.33;;;1.77;;
53287;SDS011;39172;45.550;12.072;2023-05-16T08:48:05;2.03;;;1.70;;
53287;SDS011;39172;45.550;12.072;2023-05-16T08:54:08;2.20;;;1.55;;
53287;SDS011;39172;45.550;12.072;2023-05-16T09:00:11;2.47;;;1.73;;
53287;SDS011;39172;45.550;12.072;2023-05-16T09:06:12;3.38;;;1.70;;
53287;SDS011;39172;45.550;12.072;2023-05-16T09:12:14;2.08;;;1.70;;
53287;SDS011;39172;45.550;12.072;2023-05-16T09:18:15;3.10;;;2.08;;
53287;SDS011;39172;45.550;12.072;2023-05-16T09:24:18;1.60;;;1.50;;
53287;SDS011;39172;45.550;12.072;2023-05-16T09:30:29;1.80;;;1.63;;
53287;SDS011;39172;45.550;12.072;2023-05-16T09:36:31;1.58;;;1.48;;
53287;SDS011;39172;45.550;12.072;2023-05-16T09:42:32;1.95;;;1.50;;
53287;SDS011;39172;45.550;12.072;2023-05-16T09:48:33;1.70;;;1.50;;
53287;SDS011;39172;45.550;12.072;2023-05-16T09:54:35;3.25;;;2.05;;
53287;SDS011;39172;45.550;12.072;2023-05-16T10:00:37;1.65;;;1.50;;
53287;SDS011;39172;45.550;12.072;2023-05-16T10:06:39;2.22;;;1.60;;
53287;SDS011;39172;45.550;12.072;2023-05-16T10:12:44;1.60;;;1.40;;
53287;SDS011;39172;45.550;12.072;2023-05-16T10:18:48;1.85;;;1.20;;
53287;SDS011;39172;45.550;12.072;2023-05-16T10:24:51;1.55;;;1.05;;
53287;SDS011;39172;45.550;12.072;2023-05-16T10:30:55;1.10;;;1.00;;
53287;SDS011;39172;45.550;12.072;2023-05-16T10:36:56;1.60;;;0.88;;
53287;SDS011;39172;45.550;12.072;2023-05-16T10:42:59;1.73;;;0.90;;
53287;SDS011;39172;45.550;12.072;2023-05-16T10:49:06;0.80;;;0.70;;
53287;SDS011;39172;45.550;12.072;2023-05-16T10:55:19;1.42;;;0.73;;
53287;SDS011;39172;45.550;12.072;2023-05-16T11:01:21;0.85;;;0.70;;
53287;SDS011;39172;45.550;12.072;2023-05-16T11:07:23;1.60;;;0.70;;
53287;SDS011;39172;45.550;12.072;2023-05-16T11:13:33;1.00;;;0.90;;
53287;SDS011;39172;45.550;12.072;2023-05-16T11:19:44;1.38;;;0.90;;
53287;SDS011;39172;45.550;12.072;2023-05-16T11:25:51;2.15;;;1.10;;
53287;SDS011;39172;45.550;12.072;2023-05-16T11:32:03;1.00;;;0.80;;
53287;SDS011;39172;45.550;12.072;2023-05-16T11:38:05;1.13;;;0.65;;
53287;SDS011;39172;45.550;12.072;2023-05-16T11:44:06;1.17;;;0.82;;
53287;SDS011;39172;45.550;12.072;2023-05-16T11:50:10;1.00;;;0.90;;
53287;SDS011;39172;45.550;12.072;2023-05-16T11:56:14;0.90;;;0.70;;
53287;SDS011;39172;45.550;12.072;2023-05-16T12:02:18;1.45;;;0.80;;
53287;SDS011;39172;45.550;12.072;2023-05-16T12:08:19;1.58;;;0.90;;
53287;SDS011;39172;45.550;12.072;2023-05-16T12:14:21;1.30;;;0.90;;
53287;SDS011;39172;45.550;12.072;2023-05-16T12:20:22;1.65;;;1.08;;
53287;SDS011;39172;45.550;12.072;2023-05-16T12:26:27;0.95;;;0.80;;
53287;SDS011;39172;45.550;12.072;2023-05-16T12:32:30;0.70;;;0.70;;
53287;SDS011;39172;45.550;12.072;2023-05-16T12:38:38;0.95;;;0.68;;
53287;SDS011;39172;45.550;12.072;2023-05-16T12:44:39;0.73;;;0.70;;
53287;SDS011;39172;45.550;12.072;2023-05-16T12:50:43;2.15;;;0.77;;
53287;SDS011;39172;45.550;12.072;2023-05-16T12:56:46;0.88;;;0.70;;
53287;SDS011;39172;45.550;12.072;2023-05-16T13:02:49;0.75;;;0.63;;
53287;SDS011;39172;45.550;12.072;2023-05-16T13:08:52;0.50;;;0.50;;
53287;SDS011;39172;45.550;12.072;2023-05-16T13:14:53;1.13;;;0.68;;
53287;SDS011;39172;45.550;12.072;2023-05-16T13:20:57;0.70;;;0.50;;
53287;SDS011;39172;45.550;12.072;2023-05-16T13:26:58;1.65;;;0.68;;
53287;SDS011;39172;45.550;12.072;2023-05-16T13:33:03;1.17;;;0.70;;
53287;SDS011;39172;45.550;12.072;2023-05-16T13:39:05;1.00;;;0.70;;
53287;SDS011;39172;45.550;12.072;2023-05-16T13:45:06;1.13;;;0.75;;
53287;SDS011;39172;45.550;12.072;2023-05-16T13:51:07;1.17;;;0.70;;
53287;SDS011;39172;45.550;12.072;2023-05-16T13:57:10;2.30;;;1.20;;
53287;SDS011;39172;45.550;12.072;2023-05-16T14:03:12;1.25;;;0.88;;
53287;SDS011;39172;45.550;12.072;2023-05-16T14:09:16;1.08;;;0.70;;
53287;SDS011;39172;45.550;12.072;2023-05-16T14:15:20;1.00;;;0.60;;
53287;SDS011;39172;45.550;12.072;2023-05-16T14:21:23;1.75;;;0.63;;
53287;SDS011;39172;45.550;12.072;2023-05-16T14:27:24;0.90;;;0.70;;
53287;SDS011;39172;45.550;12.072;2023-05-16T14:33:26;1.05;;;0.60;;
53287;SDS011;39172;45.550;12.072;2023-05-16T14:39:27;0.93;;;0.70;;
53287;SDS011;39172;45.550;12.072;2023-05-16T14:45:28;1.88;;;0.73;;
53287;SDS011;39172;45.550;12.072;2023-05-16T14:51:29;0.98;;;0.60;;
53287;SDS011;39172;45.550;12.072;2023-05-16T14:57:35;1.27;;;0.70;;
53287;SDS011;39172;45.550;12.072;2023-05-16T15:03:37;1.95;;;0.90;;
53287;SDS011;39172;45.550;12.072;2023-05-16T15:09:42;1.08;;;0.80;;
53287;SDS011;39172;45.550;12.072;2023-05-16T15:15:43;1.60;;;0.88;;
53287;SDS011;39172;45.550;12.072;2023-05-16T15:21:46;1.85;;;0.88;;
53287;SDS011;39172;45.550;12.072;2023-05-16T15:27:49;3.55;;;1.00;;
53287;SDS011;39172;45.550;12.072;2023-05-16T15:33:51;1.52;;;0.75;;
53287;SDS011;39172;45.550;12.072;2023-05-16T15:39:52;1.40;;;0.88;;
53287;SDS011;39172;45.550;12.072;2023-05-16T15:45:53;1.85;;;0.90;;
53287;SDS011;39172;45.550;12.072;2023-05-16T15:51:55;1.52;;;0.80;;
53287;SDS011;39172;45.550;12.072;2023-05-16T15:58:00;0.80;;;0.70;;
53287;SDS011;39172;45.550;12.072;2023-05-16T16:04:01;1.73;;;0.70;;
53287;SDS011;39172;45.550;12.072;2023-05-16T16:10:02;0.90;;;0.70;;
53287;SDS011;39172;45.550;12.072;2023-05-16T16:16:03;1.92;;;0.82;;
53287;SDS011;39172;45.550;12.072;2023-05-16T16:22:04;1.85;;;0.80;;
53287;SDS011;39172;45.550;12.072;2023-05-16T16:28:06;1.20;;;0.80;;
53287;SDS011;39172;45.550;12.072;2023-05-16T16:34:07;1.55;;;0.90;;
53287;SDS011;39172;45.550;12.072;2023-05-16T16:40:08;1.42;;;0.95;;
53287;SDS011;39172;45.550;12.072;2023-05-16T16:46:09;0.88;;;0.70;;
53287;SDS011;39172;45.550;12.072;2023-05-16T16:52:10;1.38;;;0.70;;
53287;SDS011;39172;45.550;12.072;2023-05-16T16:58:11;1.40;;;1.10;;
53287;SDS011;39172;45.550;12.072;2023-05-16T17:04:12;1.52;;;0.82;;
53287;SDS011;39172;45.550;12.072;2023-05-16T17:10:13;1.00;;;0.90;;
53287;SDS011;39172;45.550;12.072;2023-05-16T17:16:16;1.33;;;1.00;;
53287;SDS011;39172;45.550;12.072;2023-05-16T17:22:17;0.95;;;0.88;;
53287;SDS011;39172;45.550;12.072;2023-05-16T17:28:18;0.90;;;0.80;;
53287;SDS011;39172;45.550;12.072;2023-05-16T17:34:20;1.30;;;0.90;;
53287;SDS011;39172;45.550;12.072;2023-05-16T17:40:21;0.82;;;0.80;;
53287;SDS011;39172;45.550;12.072;2023-05-16T17:46:22;0.93;;;0.82;;
53287;SDS011;39172;45.550;12.072;2023-05-16T17:52:23;1.23;;;0.90;;
53287;SDS011;39172;45.550;12.072;2023-05-16T17:58:25;1.05;;;0.95;;
53287;SDS011;39172;45.550;12.072;2023-05-16T18:04:33;1.42;;;1.08;;
53287;SDS011;39172;45.550;12.072;2023-05-16T18:10:34;1.88;;;1.00;;
53287;SDS011;39172;45.550;12.072;2023-05-16T18:16:36;5.78;;;1.30;;
53287;SDS011;39172;45.550;12.072;2023-05-16T18:22:38;1.52;;;1.42;;
53287;SDS011;39172;45.550;12.072;2023-05-16T18:28:39;1.67;;;1.38;;
53287;SDS011;39172;45.550;12.072;2023-05-16T18:34:40;1.55;;;1.33;;
53287;SDS011;39172;45.550;12.072;2023-05-16T18:40:41;1.13;;;1.02;;
53287;SDS011;39172;45.550;12.072;2023-05-16T18:46:47;1.50;;;1.27;;
53287;SDS011;39172;45.550;12.072;2023-05-16T18:52:48;1.65;;;1.40;;
53287;SDS011;39172;45.550;12.072;2023-05-16T18:58:49;2.38;;;1.80;;
53287;SDS011;39172;45.550;12.072;2023-05-16T19:04:51;3.03;;;2.20;;
53287;SDS011;39172;45.550;12.072;2023-05-16T19:10:52;2.88;;;2.38;;
53287;SDS011;39172;45.550;12.072;2023-05-16T19:16:53;3.78;;;2.50;;
53287;SDS011;39172;45.550;12.072;2023-05-16T19:22:54;2.63;;;2.15;;
53287;SDS011;39172;45.550;12.072;2023-05-16T19:28:55;2.13;;;1.92;;
53287;SDS011;39172;45.550;12.072;2023-05-16T19:34:56;3.95;;;2.25;;
53287;SDS011;39172;45.550;12.072;2023-05-16T19:40:58;2.67;;;1.80;;
53287;SDS011;39172;45.550;12.072;2023-05-16T19:46:59;2.33;;;1.70;;
53287;SDS011;39172;45.550;12.072;2023-05-16T19:53:00;1.73;;;1.58;;
53287;SDS011;39172;45.550;12.072;2023-05-16T19:59:01;2.97;;;1.40;;
53287;SDS011;39172;45.550;12.072;2023-05-16T20:05:04;2.63;;;1.33;;
53287;SDS011;39172;45.550;12.072;2023-05-16T20:11:05;1.60;;;1.15;;
53287;SDS011;39172;45.550;12.072;2023-05-16T20:17:06;1.42;;;1.33;;
53287;SDS011;39172;45.550;12.072;2023-05-16T20:23:07;2.42;;;1.70;;
53287;SDS011;39172;45.550;12.072;2023-05-16T20:29:08;1.98;;;1.77;;
53287;SDS011;39172;45.550;12.072;2023-05-16T20:35:09;1.98;;;1.73;;
53287;SDS011;39172;45.550;12.072;2023-05-16T20:41:12;1.95;;;1.60;;
53287;SDS011;39172;45.550;12.072;2023-05-16T20:47:13;2.10;;;1.80;;
53287;SDS011;39172;45.550;12.072;2023-05-16T20:53:13;1.90;;;1.52;;
53287;SDS011;39172;45.550;12.072;2023-05-16T20:59:14;1.90;;;1.70;;
53287;SDS011;39172;45.550;12.072;2023-05-16T21:05:16;2.72;;;1.83;;
53287;SDS011;39172;45.550;12.072;2023-05-16T21:11:17;2.33;;;1.90;;
53287;SDS011;39172;45.550;12.072;2023-05-16T21:17:18;2.40;;;1.90;;
53287;SDS011;39172;45.550;12.072;2023-05-16T21:23:19;2.08;;;1.70;;
53287;SDS011;39172;45.550;12.072;2023-05-16T21:29:21;2.80;;;2.10;;
53287;SDS011;39172;45.550;12.072;2023-05-16T21:35:22;1.92;;;1.73;;
53287;SDS011;39172;45.550;12.072;2023-05-16T21:41:23;1.67;;;1.55;;
53287;SDS011;39172;45.550;12.072;2023-05-16T21:47:24;1.83;;;1.60;;
53287;SDS011;39172;45.550;12.072;2023-05-16T21:53:25;1.70;;;1.52;;
53287;SDS011;39172;45.550;12.072;2023-05-16T21:59:27;1.83;;;1.70;;
53287;SDS011;39172;45.550;12.072;2023-05-16T22:05:28;2.05;;;1.50;;
53287;SDS011;39172;45.550;12.072;2023-05-16T22:11:31;1.88;;;1.63;;
53287;SDS011;39172;45.550;12.072;2023-05-16T22:17:33;1.50;;;1.40;;
53287;SDS011;39172;45.550;12.072;2023-05-16T22:23:34;1.50;;;1.30;;
53287;SDS011;39172;45.550;12.072;2023-05-16T22:29:35;1.52;;;1.30;;
53287;SDS011;39172;45.550;12.072;2023-05-16T22:35:39;1.55;;;1.15;;
53287;SDS011;39172;45.550;12.072;2023-05-16T22:41:40;1.67;;;1.30;;
53287;SDS011;39172;45.550;12.072;2023-05-16T22:47:41;2.20;;;1.60;;
53287;SDS011;39172;45.550;12.072;2023-05-16T22:53:42;1.80;;;1.50;;
53287;SDS011;39172;45.550;12.072;2023-05-16T22:59:42;2.85;;;1.70;;
53287;SDS011;39172;45.550;12.072;2023-05-16T23:05:44;1.80;;;1.33;;
53287;SDS011;39172;45.550;12.072;2023-05-16T23:11:44;1.42;;;1.33;;
53287;SDS011;39172;45.550;12.072;2023-05-16T23:17:45;1.30;;;1.20;;
53287;SDS011;39172;45.550;12.072;2023-05-16T23:23:46;1.40;;;1.30;;
53287;SDS011;39172;45.550;12.072;2023-05-16T23:29:47;1.30;;;1.20;;
53287;SDS011;39172;45.550;12.072;2023-05-16T23:35:48;1.90;;;1.50;;
53287;SDS011;39172;45.550;12.072;2023-05-16T23:41:49;1.13;;;1.02;;
53287;SDS011;39172;45.550;12.072;2023-05-16T23:47:50;1.70;;;1.40;;
53287;SDS011;39172;45.550;12.072;2023-05-16T23:53:51;1.50;;;1.00;;
53287;SDS011;39172;45.550;12.072;2023-05-16T23:59:53;1.33;;;0.90;;
